createdAt,value
2023-05-21T00:02:00.305Z,100563.47
2023-05-21T00:07:02.485Z,100576.50
2023-05-21T00:12:08.221Z,100578.47
2023-05-21T00:17:10.536Z,100589.78
2023-05-21T00:22:14.328Z,100588.00
2023-05-21T00:27:16.654Z,100570.06
2023-05-21T00:32:18.792Z,100587.81
2023-05-21T00:37:21.824Z,100576.37
2023-05-21T00:42:27.385Z,100584.19
2023-05-21T00:47:29.725Z,100573.91
2023-05-21T00:52:32.116Z,100576.69
2023-05-21T00:57:37.237Z,100565.97
2023-05-21T01:02:39.608Z,100582.31
2023-05-21T01:07:41.926Z,100582.78
2023-05-21T01:12:44.964Z,100577.31
2023-05-21T01:17:48.897Z,100575.84
2023-05-21T01:22:54.681Z,100571.56
2023-05-21T01:27:57.947Z,100566.22
2023-05-21T01:33:02.760Z,100568.41
2023-05-21T01:38:22.809Z,100571.50
2023-05-21T01:43:27.969Z,100574.19
2023-05-21T01:48:31.069Z,100563.69
2023-05-21T01:53:33.625Z,100566.16
2023-05-21T01:58:36.159Z,100576.94
2023-05-21T02:03:38.815Z,100562.06
2023-05-21T02:08:41.044Z,100559.53
2023-05-21T02:13:43.358Z,100571.25
2023-05-21T02:18:46.494Z,100563.50
2023-05-21T02:23:48.911Z,100565.91
2023-05-21T02:28:52.830Z,100572.47
2023-05-21T02:33:55.023Z,100569.16
2023-05-21T02:38:57.821Z,100555.56
2023-05-21T02:44:00.218Z,100558.31
2023-05-21T02:49:02.623Z,100559.72
2023-05-21T02:54:04.802Z,100554.91
2023-05-21T02:59:07.083Z,100557.56
2023-05-21T03:04:09.292Z,100569.09
2023-05-21T03:09:11.496Z,100563.19
2023-05-21T03:14:14.476Z,100554.34
2023-05-21T03:19:16.792Z,100556.00
2023-05-21T03:24:19.018Z,100566.34
2023-05-21T03:29:21.953Z,100555.25
2023-05-21T03:34:24.613Z,100553.97
2023-05-21T03:39:26.766Z,100553.72
2023-05-21T03:44:32.420Z,100563.50
2023-05-21T03:49:34.639Z,100570.06
2023-05-21T03:54:37.208Z,100577.00
2023-05-21T03:59:39.402Z,100560.47
2023-05-21T04:04:41.625Z,100570.44
2023-05-21T04:09:43.913Z,100576.06
2023-05-21T04:14:46.739Z,100562.34
2023-05-21T04:19:49.160Z,100569.03
2023-05-21T04:24:52.731Z,100565.91
2023-05-21T04:29:54.881Z,100565.09
2023-05-21T04:34:57.599Z,100589.16
2023-05-21T04:40:01.599Z,100584.94
2023-05-21T04:45:04.015Z,100573.31
2023-05-21T04:50:06.923Z,100581.25
2023-05-21T04:55:09.263Z,100565.97
2023-05-21T05:00:12.637Z,100572.31
2023-05-21T05:05:14.973Z,100564.72
2023-05-21T05:10:17.506Z,100569.59
2023-05-21T05:15:19.727Z,100566.16
2023-05-21T05:20:22.039Z,100559.63
2023-05-21T05:25:24.412Z,100572.81
2023-05-21T05:30:26.888Z,100568.22
2023-05-21T05:35:29.054Z,100547.91
2023-05-21T05:40:31.346Z,100549.56
2023-05-21T05:45:33.492Z,100549.25
2023-05-21T05:50:35.632Z,100565.63
2023-05-21T05:55:38.229Z,100549.84
2023-05-21T06:00:40.987Z,100558.81
2023-05-21T06:05:43.239Z,100553.47
2023-05-21T06:10:45.562Z,100544.44
2023-05-21T06:15:47.751Z,100539.44
2023-05-21T06:20:49.977Z,100541.13
2023-05-21T06:25:52.168Z,100525.00
2023-05-21T06:30:54.351Z,100529.31
2023-05-21T06:35:56.496Z,100526.38
2023-05-21T06:40:58.675Z,100522.34
2023-05-21T06:46:01.659Z,100518.06
2023-05-21T06:51:04.083Z,100510.78
2023-05-21T06:56:06.519Z,100520.50
2023-05-21T07:01:08.724Z,100511.56
2023-05-21T07:06:11.006Z,100502.66
2023-05-21T07:11:13.804Z,100507.53
2023-05-21T07:16:17.928Z,100507.91
2023-05-21T07:21:20.247Z,100496.78
2023-05-21T07:26:26.400Z,100486.25
2023-05-21T07:31:28.697Z,100487.72
2023-05-21T07:36:31.239Z,100490.06
2023-05-21T07:41:33.609Z,100477.44
2023-05-21T07:46:35.951Z,100500.81
2023-05-21T07:51:38.298Z,100490.12
2023-05-21T07:56:40.454Z,100493.63
2023-05-21T08:01:43.449Z,100473.16
2023-05-21T08:06:45.772Z,100472.09
2023-05-21T08:11:47.915Z,100477.75
2023-05-21T08:16:50.192Z,100467.84
2023-05-21T08:21:53.094Z,100469.91
2023-05-21T08:26:55.458Z,100474.69
2023-05-21T08:31:57.740Z,100466.84
2023-05-21T08:37:00.067Z,100473.84
2023-05-21T08:42:22.568Z,100463.53
2023-05-21T08:47:34.999Z,100472.69
2023-05-21T08:52:37.721Z,100473.94
2023-05-21T08:57:44.127Z,100471.84
2023-05-21T09:02:46.937Z,100472.66
2023-05-21T09:08:28.055Z,100464.84
2023-05-21T09:13:32.610Z,100469.00
2023-05-21T09:18:34.879Z,100459.34
2023-05-21T09:23:37.173Z,100458.09
2023-05-21T09:28:39.487Z,100458.47
2023-05-21T09:33:47.917Z,100452.31
2023-05-21T09:38:52.070Z,100445.28
2023-05-21T09:43:59.833Z,100449.81
2023-05-21T09:49:02.060Z,100437.94
2023-05-21T09:54:04.220Z,100448.84
2023-05-21T09:59:07.432Z,100435.94
2023-05-21T10:04:10.556Z,100442.34
2023-05-21T10:09:15.752Z,100438.91
2023-05-21T10:14:22.888Z,100431.84
2023-05-21T10:19:25.841Z,100428.19
2023-05-21T10:24:29.005Z,100424.66
2023-05-21T10:29:32.215Z,100418.88
2023-05-21T10:34:36.004Z,100404.00
2023-05-21T10:39:39.487Z,100410.47
2023-05-21T10:45:19.149Z,100399.34
2023-05-21T10:50:44.891Z,100409.38
2023-05-21T10:56:08.940Z,100393.09
2023-05-21T11:01:12.573Z,100394.16
2023-05-21T11:06:25.384Z,100386.34
2023-05-21T11:11:50.923Z,100395.63
2023-05-21T11:16:53.266Z,100395.78
2023-05-21T11:21:56.103Z,100400.72
2023-05-21T11:27:01.634Z,100380.19
2023-05-21T11:32:05.762Z,100380.69
2023-05-21T11:37:37.300Z,100376.59
2023-05-21T11:42:39.835Z,100379.44
2023-05-21T11:47:44.294Z,100361.72
2023-05-21T11:52:46.876Z,100371.00
2023-05-21T11:57:53.033Z,100372.00
2023-05-21T12:02:57.100Z,100351.72
2023-05-21T12:07:59.939Z,100352.03
2023-05-21T12:13:02.504Z,100339.59
2023-05-21T12:18:04.825Z,100333.91
2023-05-21T12:23:07.056Z,100334.63
2023-05-21T12:28:09.229Z,100338.78
2023-05-21T12:33:12.269Z,100329.78
2023-05-21T12:38:14.540Z,100319.88
2023-05-21T12:43:16.774Z,100327.97
2023-05-21T12:48:18.961Z,100313.41
2023-05-21T12:53:21.204Z,100311.87
2023-05-21T12:58:23.409Z,100311.75
2023-05-21T13:03:27.174Z,100291.16
2023-05-21T13:08:29.627Z,100299.88
2023-05-21T13:13:32.083Z,100288.41
2023-05-21T13:18:34.283Z,100292.41
2023-05-21T13:23:36.479Z,100278.94
2023-05-21T13:28:39.510Z,100269.41
2023-05-21T13:33:43.006Z,100269.84
2023-05-21T13:38:45.321Z,100270.78
2023-05-21T13:43:47.523Z,100259.53
2023-05-21T13:48:49.803Z,100262.28
2023-05-21T13:53:51.959Z,100262.03
2023-05-21T13:58:54.211Z,100245.62
2023-05-21T14:03:56.520Z,100251.38
2023-05-21T14:09:00.007Z,100240.72
2023-05-21T14:14:03.024Z,100235.28
2023-05-21T14:19:05.232Z,100242.94
2023-05-21T14:24:07.858Z,100243.72
2023-05-21T14:29:10.526Z,100238.59
2023-05-21T14:34:12.682Z,100227.72
2023-05-21T14:39:14.921Z,100223.06
2023-05-21T14:44:17.140Z,100226.50
2023-05-21T14:49:19.361Z,100222.81
2023-05-21T14:54:21.606Z,100215.09
2023-05-21T14:59:23.876Z,100211.72
2023-05-21T15:04:26.630Z,100213.19
2023-05-21T15:09:28.839Z,100222.63
2023-05-21T15:14:31.126Z,100215.47
2023-05-21T15:19:33.497Z,100212.44
2023-05-21T15:24:36.464Z,100205.28
2023-05-21T15:29:38.976Z,100208.12
2023-05-21T15:34:41.242Z,100205.28
2023-05-21T15:39:51.331Z,100211.78
2023-05-21T15:44:53.495Z,100208.66
2023-05-21T15:49:56.441Z,100203.84
2023-05-21T15:54:58.602Z,100202.28
2023-05-21T16:00:00.936Z,100219.34
2023-05-21T16:05:03.312Z,100214.06
2023-05-21T16:10:08.215Z,100221.66
2023-05-21T16:15:10.921Z,100215.66
2023-05-21T16:20:13.524Z,100230.00
2023-05-21T16:25:15.858Z,100216.84
2023-05-21T16:30:17.986Z,100227.88
2023-05-21T16:35:20.404Z,100215.69
2023-05-21T16:40:22.694Z,100220.31
2023-05-21T16:45:24.857Z,100231.41
2023-05-21T16:50:27.044Z,100235.16
2023-05-21T16:55:31.705Z,100236.78
2023-05-21T17:00:34.326Z,100242.03
2023-05-21T17:05:36.776Z,100238.72
2023-05-21T17:10:39.234Z,100240.56
2023-05-21T17:15:41.519Z,100250.94
2023-05-21T17:20:43.938Z,100247.47
2023-05-21T17:25:46.414Z,100243.84
2023-05-21T17:30:49.654Z,100249.47
2023-05-21T17:35:52.110Z,100246.63
2023-05-21T17:40:55.634Z,100252.66
2023-05-21T17:45:58.385Z,100263.97
2023-05-21T17:51:00.590Z,100256.12
2023-05-21T17:56:03.523Z,100263.97
2023-05-21T18:01:05.992Z,100259.72
2023-05-21T18:06:09.499Z,100262.41
2023-05-21T18:11:12.022Z,100263.56
2023-05-21T18:16:14.234Z,100261.84
2023-05-21T18:21:16.566Z,100259.72
2023-05-21T18:26:19.949Z,100263.28
2023-05-21T18:31:23.229Z,100254.34
2023-05-21T18:36:26.699Z,100251.00
2023-05-21T18:41:28.972Z,100259.62
2023-05-21T18:46:31.702Z,100276.66
2023-05-21T18:51:34.049Z,100265.75
2023-05-21T18:56:36.230Z,100277.75
2023-05-21T19:01:38.638Z,100273.03
2023-05-21T19:06:40.842Z,100285.72
2023-05-21T19:11:43.167Z,100263.31
2023-05-21T19:16:45.483Z,100290.06
2023-05-21T19:21:51.219Z,100305.13
2023-05-21T19:26:53.547Z,100309.13
2023-05-21T19:31:57.446Z,100313.94
2023-05-21T19:36:59.666Z,100322.53
2023-05-21T19:42:01.966Z,100325.25
2023-05-21T19:47:04.465Z,100323.31
2023-05-21T19:52:06.708Z,100315.44
2023-05-21T19:57:10.961Z,100319.59
2023-05-21T20:02:16.990Z,100322.50
2023-05-21T20:07:19.210Z,100309.72
2023-05-21T20:12:21.393Z,100315.00
2023-05-21T20:17:24.587Z,100301.91
2023-05-21T20:22:27.870Z,100321.22
2023-05-21T20:27:30.266Z,100318.31
2023-05-21T20:32:32.411Z,100319.88
2023-05-21T20:37:34.573Z,100312.38
2023-05-21T20:42:36.798Z,100312.97
2023-05-21T20:47:39.224Z,100321.81
2023-05-21T20:52:41.523Z,100321.16
2023-05-21T20:57:43.823Z,100334.63
2023-05-21T21:02:46.109Z,100321.31
2023-05-21T21:07:48.391Z,100318.59
2023-05-21T21:12:50.677Z,100321.03
2023-05-21T21:17:53.050Z,100323.56
2023-05-21T21:22:55.845Z,100331.66
2023-05-21T21:27:58.090Z,100339.94
2023-05-21T21:33:00.595Z,100335.97
2023-05-21T21:38:04.977Z,100341.03
2023-05-21T21:43:07.324Z,100337.47
2023-05-21T21:48:09.539Z,100341.63
2023-05-21T21:53:14.096Z,100356.50
2023-05-21T21:58:16.389Z,100348.47
2023-05-21T22:03:18.912Z,100350.72
2023-05-21T22:08:21.784Z,100336.34
2023-05-21T22:13:26.981Z,100346.41
2023-05-21T22:18:39.478Z,100342.81
2023-05-21T22:23:42.977Z,100345.19
2023-05-21T22:28:45.295Z,100347.25
2023-05-21T22:33:47.480Z,100358.09
2023-05-21T22:38:49.708Z,100350.38
2023-05-21T22:43:52.380Z,100353.66
2023-05-21T22:48:54.591Z,100365.47
2023-05-21T22:53:56.883Z,100357.25
2023-05-21T22:58:59.674Z,100363.16
2023-05-21T23:04:01.862Z,100371.47
2023-05-21T23:09:07.138Z,100363.06
2023-05-21T23:14:09.368Z,100374.72
2023-05-21T23:19:14.283Z,100358.00
2023-05-21T23:24:16.631Z,100362.87
2023-05-21T23:29:19.075Z,100362.50
2023-05-21T23:34:21.396Z,100361.31
2023-05-21T23:39:23.748Z,100376.53
2023-05-21T23:44:25.994Z,100360.38
2023-05-21T23:49:28.156Z,100384.34
2023-05-21T23:54:30.776Z,100366.34
2023-05-21T23:59:33.037Z,100365.81
